sensor_id;sensor_type;location;lat;lon;timestamp;P1;durP1;ratioP1;P2;durP2;ratioP2
56329;SDS011;42236;48.058;10.632;2022-11-15T00:00:16;4.27;;;3.07;;
56329;SDS011;42236;48.058;10.632;2022-11-15T00:03:02;4.57;;;2.20;;
56329;SDS011;42236;48.058;10.632;2022-11-15T00:05:48;3.37;;;2.43;;
56329;SDS011;42236;48.058;10.632;2022-11-15T00:08:34;3.07;;;2.73;;
56329;SDS011;42236;48.058;10.632;2022-11-15T00:11:20;3.27;;;2.37;;
56329;SDS011;42236;48.058;10.632;2022-11-15T00:14:06;4.80;;;2.77;;
56329;SDS011;42236;48.058;10.632;2022-11-15T00:16:51;4.67;;;2.73;;
56329;SDS011;42236;48.058;10.632;2022-11-15T00:19:37;4.03;;;2.70;;
56329;SDS011;42236;48.058;10.632;2022-11-15T00:22:22;6.10;;;3.03;;
56329;SDS011;42236;48.058;10.632;2022-11-15T00:25:08;3.37;;;2.30;;
56329;SDS011;42236;48.058;10.632;2022-11-15T00:27:55;2.97;;;2.57;;
56329;SDS011;42236;48.058;10.632;2022-11-15T00:30:41;3.63;;;2.60;;
56329;SDS011;42236;48.058;10.632;2022-11-15T00:33:27;4.60;;;2.60;;
56329;SDS011;42236;48.058;10.632;2022-11-15T00:36:13;3.07;;;2.50;;
56329;SDS011;42236;48.058;10.632;2022-11-15T00:38:58;2.30;;;2.10;;
56329;SDS011;42236;48.058;10.632;2022-11-15T00:41:44;2.70;;;2.27;;
56329;SDS011;42236;48.058;10.632;2022-11-15T00:44:30;5.63;;;2.40;;
56329;SDS011;42236;48.058;10.632;2022-11-15T00:47:15;3.63;;;2.20;;
56329;SDS011;42236;48.058;10.632;2022-11-15T00:50:01;3.77;;;2.73;;
56329;SDS011;42236;48.058;10.632;2022-11-15T00:52:47;3.50;;;2.40;;
56329;SDS011;42236;48.058;10.632;2022-11-15T00:55:32;2.70;;;2.10;;
56329;SDS011;42236;48.058;10.632;2022-11-15T00:58:18;3.70;;;2.00;;
56329;SDS011;42236;48.058;10.632;2022-11-15T01:01:05;3.27;;;2.10;;
56329;SDS011;42236;48.058;10.632;2022-11-15T01:03:55;2.83;;;2.20;;
56329;SDS011;42236;48.058;10.632;2022-11-15T01:06:40;3.93;;;2.10;;
56329;SDS011;42236;48.058;10.632;2022-11-15T01:09:26;2.23;;;2.03;;
56329;SDS011;42236;48.058;10.632;2022-11-15T01:12:12;4.40;;;2.43;;
56329;SDS011;42236;48.058;10.632;2022-11-15T01:14:57;2.90;;;1.97;;
56329;SDS011;42236;48.058;10.632;2022-11-15T01:17:43;3.73;;;1.90;;
56329;SDS011;42236;48.058;10.632;2022-11-15T01:20:29;2.60;;;1.90;;
56329;SDS011;42236;48.058;10.632;2022-11-15T01:23:15;3.53;;;2.47;;
56329;SDS011;42236;48.058;10.632;2022-11-15T01:26:02;3.07;;;1.97;;
56329;SDS011;42236;48.058;10.632;2022-11-15T01:28:49;5.33;;;2.00;;
56329;SDS011;42236;48.058;10.632;2022-11-15T01:31:35;2.70;;;1.90;;
56329;SDS011;42236;48.058;10.632;2022-11-15T01:34:21;1.73;;;1.63;;
56329;SDS011;42236;48.058;10.632;2022-11-15T01:37:06;2.20;;;2.00;;
56329;SDS011;42236;48.058;10.632;2022-11-15T01:39:52;4.60;;;2.37;;
56329;SDS011;42236;48.058;10.632;2022-11-15T01:42:37;1.90;;;1.70;;
56329;SDS011;42236;48.058;10.632;2022-11-15T01:45:23;2.37;;;1.83;;
56329;SDS011;42236;48.058;10.632;2022-11-15T01:48:09;2.60;;;1.83;;
56329;SDS011;42236;48.058;10.632;2022-11-15T01:50:56;3.37;;;1.80;;
56329;SDS011;42236;48.058;10.632;2022-11-15T01:53:43;2.50;;;1.80;;
56329;SDS011;42236;48.058;10.632;2022-11-15T01:56:31;4.37;;;1.80;;
56329;SDS011;42236;48.058;10.632;2022-11-15T01:59:21;2.33;;;1.73;;
56329;SDS011;42236;48.058;10.632;2022-11-15T02:02:08;1.80;;;1.57;;
56329;SDS011;42236;48.058;10.632;2022-11-15T02:04:53;2.67;;;1.63;;
56329;SDS011;42236;48.058;10.632;2022-11-15T02:07:39;2.33;;;1.50;;
56329;SDS011;42236;48.058;10.632;2022-11-15T02:10:25;2.70;;;1.70;;
56329;SDS011;42236;48.058;10.632;2022-11-15T02:13:11;2.57;;;1.40;;
56329;SDS011;42236;48.058;10.632;2022-11-15T02:19:25;2.17;;;1.50;;
56329;SDS011;42236;48.058;10.632;2022-11-15T02:25:37;5.53;;;1.60;;
56329;SDS011;42236;48.058;10.632;2022-11-15T02:31:45;2.57;;;1.80;;
56329;SDS011;42236;48.058;10.632;2022-11-15T02:34:56;1.90;;;1.60;;
56329;SDS011;42236;48.058;10.632;2022-11-15T02:38:20;2.40;;;1.43;;
56329;SDS011;42236;48.058;10.632;2022-11-15T02:41:16;4.13;;;1.47;;
56329;SDS011;42236;48.058;10.632;2022-11-15T02:44:32;2.40;;;1.40;;
56329;SDS011;42236;48.058;10.632;2022-11-15T02:47:22;2.13;;;1.30;;
56329;SDS011;42236;48.058;10.632;2022-11-15T02:50:12;2.23;;;1.60;;
56329;SDS011;42236;48.058;10.632;2022-11-15T02:53:01;2.20;;;1.40;;
56329;SDS011;42236;48.058;10.632;2022-11-15T02:55:48;4.00;;;1.83;;
56329;SDS011;42236;48.058;10.632;2022-11-15T02:58:48;2.60;;;1.90;;
56329;SDS011;42236;48.058;10.632;2022-11-15T03:07:36;3.40;;;1.77;;
56329;SDS011;42236;48.058;10.632;2022-11-15T03:10:32;2.23;;;1.60;;
56329;SDS011;42236;48.058;10.632;2022-11-15T03:13:34;1.70;;;1.50;;
56329;SDS011;42236;48.058;10.632;2022-11-15T03:19:27;2.97;;;1.50;;
56329;SDS011;42236;48.058;10.632;2022-11-15T03:22:21;1.63;;;1.40;;
56329;SDS011;42236;48.058;10.632;2022-11-15T03:25:10;1.90;;;1.33;;
56329;SDS011;42236;48.058;10.632;2022-11-15T03:28:01;2.13;;;1.47;;
56329;SDS011;42236;48.058;10.632;2022-11-15T03:30:50;3.07;;;1.63;;
56329;SDS011;42236;48.058;10.632;2022-11-15T03:33:38;3.70;;;1.60;;
56329;SDS011;42236;48.058;10.632;2022-11-15T03:36:25;4.20;;;1.47;;
56329;SDS011;42236;48.058;10.632;2022-11-15T03:39:12;2.20;;;1.90;;
56329;SDS011;42236;48.058;10.632;2022-11-15T03:45:41;3.30;;;1.30;;
56329;SDS011;42236;48.058;10.632;2022-11-15T03:48:35;3.50;;;2.03;;
56329;SDS011;42236;48.058;10.632;2022-11-15T03:51:27;1.90;;;1.63;;
56329;SDS011;42236;48.058;10.632;2022-11-15T03:54:14;2.27;;;1.37;;
56329;SDS011;42236;48.058;10.632;2022-11-15T03:57:00;1.60;;;1.50;;
56329;SDS011;42236;48.058;10.632;2022-11-15T03:59:45;2.70;;;1.73;;
56329;SDS011;42236;48.058;10.632;2022-11-15T04:02:31;2.43;;;1.27;;
56329;SDS011;42236;48.058;10.632;2022-11-15T04:05:17;3.60;;;1.70;;
56329;SDS011;42236;48.058;10.632;2022-11-15T04:08:03;1.87;;;1.60;;
56329;SDS011;42236;48.058;10.632;2022-11-15T04:10:49;2.40;;;1.67;;
56329;SDS011;42236;48.058;10.632;2022-11-15T04:13:35;1.93;;;1.73;;
56329;SDS011;42236;48.058;10.632;2022-11-15T04:16:20;4.30;;;1.60;;
56329;SDS011;42236;48.058;10.632;2022-11-15T04:19:06;3.23;;;1.40;;
56329;SDS011;42236;48.058;10.632;2022-11-15T04:22:10;3.20;;;1.83;;
56329;SDS011;42236;48.058;10.632;2022-11-15T04:25:15;2.20;;;1.40;;
56329;SDS011;42236;48.058;10.632;2022-11-15T04:28:00;2.83;;;1.50;;
56329;SDS011;42236;48.058;10.632;2022-11-15T04:30:46;3.43;;;2.03;;
56329;SDS011;42236;48.058;10.632;2022-11-15T04:33:32;3.10;;;2.37;;
56329;SDS011;42236;48.058;10.632;2022-11-15T04:36:18;7.37;;;4.87;;
56329;SDS011;42236;48.058;10.632;2022-11-15T04:39:23;3.40;;;2.70;;
56329;SDS011;42236;48.058;10.632;2022-11-15T04:42:08;2.57;;;1.80;;
56329;SDS011;42236;48.058;10.632;2022-11-15T04:44:54;3.20;;;2.03;;
56329;SDS011;42236;48.058;10.632;2022-11-15T04:47:43;2.20;;;1.43;;
56329;SDS011;42236;48.058;10.632;2022-11-15T04:50:30;2.53;;;1.17;;
56329;SDS011;42236;48.058;10.632;2022-11-15T04:53:15;3.13;;;1.97;;
56329;SDS011;42236;48.058;10.632;2022-11-15T04:56:01;10.90;;;1.93;;
56329;SDS011;42236;48.058;10.632;2022-11-15T04:58:50;3.13;;;2.00;;
56329;SDS011;42236;48.058;10.632;2022-11-15T05:01:35;3.27;;;2.07;;
56329;SDS011;42236;48.058;10.632;2022-11-15T05:04:21;4.97;;;2.10;;
56329;SDS011;42236;48.058;10.632;2022-11-15T05:07:07;2.80;;;2.10;;
56329;SDS011;42236;48.058;10.632;2022-11-15T05:09:52;3.33;;;2.33;;
56329;SDS011;42236;48.058;10.632;2022-11-15T05:12:38;10.20;;;2.20;;
56329;SDS011;42236;48.058;10.632;2022-11-15T05:15:24;3.07;;;1.77;;
56329;SDS011;42236;48.058;10.632;2022-11-15T05:18:09;3.50;;;2.13;;
56329;SDS011;42236;48.058;10.632;2022-11-15T05:20:55;4.00;;;2.10;;
56329;SDS011;42236;48.058;10.632;2022-11-15T05:23:41;3.70;;;2.50;;
56329;SDS011;42236;48.058;10.632;2022-11-15T05:26:26;2.03;;;1.50;;
56329;SDS011;42236;48.058;10.632;2022-11-15T05:29:12;1.10;;;1.10;;
56329;SDS011;42236;48.058;10.632;2022-11-15T05:31:58;2.10;;;1.70;;
56329;SDS011;42236;48.058;10.632;2022-11-15T05:34:44;2.80;;;1.30;;
56329;SDS011;42236;48.058;10.632;2022-11-15T05:37:30;1.40;;;1.30;;
56329;SDS011;42236;48.058;10.632;2022-11-15T05:40:16;2.33;;;1.60;;
56329;SDS011;42236;48.058;10.632;2022-11-15T05:43:02;2.60;;;1.70;;
56329;SDS011;42236;48.058;10.632;2022-11-15T05:45:49;1.80;;;1.33;;
56329;SDS011;42236;48.058;10.632;2022-11-15T05:48:36;2.00;;;1.80;;
56329;SDS011;42236;48.058;10.632;2022-11-15T05:51:22;2.03;;;1.40;;
56329;SDS011;42236;48.058;10.632;2022-11-15T05:54:09;2.10;;;1.50;;
56329;SDS011;42236;48.058;10.632;2022-11-15T05:56:55;1.63;;;1.40;;
56329;SDS011;42236;48.058;10.632;2022-11-15T05:59:41;2.57;;;1.87;;
56329;SDS011;42236;48.058;10.632;2022-11-15T06:02:28;1.83;;;1.60;;
56329;SDS011;42236;48.058;10.632;2022-11-15T06:05:14;2.47;;;1.80;;
56329;SDS011;42236;48.058;10.632;2022-11-15T06:07:59;3.37;;;1.60;;
56329;SDS011;42236;48.058;10.632;2022-11-15T06:10:45;2.43;;;1.50;;
56329;SDS011;42236;48.058;10.632;2022-11-15T06:13:31;5.60;;;1.87;;
56329;SDS011;42236;48.058;10.632;2022-11-15T06:16:18;2.50;;;1.30;;
56329;SDS011;42236;48.058;10.632;2022-11-15T06:19:03;1.53;;;1.33;;
56329;SDS011;42236;48.058;10.632;2022-11-15T06:21:51;2.47;;;1.37;;
56329;SDS011;42236;48.058;10.632;2022-11-15T06:24:36;3.67;;;1.53;;
56329;SDS011;42236;48.058;10.632;2022-11-15T06:27:22;2.40;;;1.70;;
56329;SDS011;42236;48.058;10.632;2022-11-15T06:30:08;3.53;;;2.70;;
56329;SDS011;42236;48.058;10.632;2022-11-15T06:33:01;6.80;;;2.77;;
56329;SDS011;42236;48.058;10.632;2022-11-15T06:35:47;3.23;;;2.00;;
56329;SDS011;42236;48.058;10.632;2022-11-15T06:38:33;2.17;;;1.23;;
56329;SDS011;42236;48.058;10.632;2022-11-15T06:41:19;1.70;;;1.20;;
56329;SDS011;42236;48.058;10.632;2022-11-15T06:44:06;2.63;;;1.50;;
56329;SDS011;42236;48.058;10.632;2022-11-15T06:46:52;2.63;;;1.70;;
56329;SDS011;42236;48.058;10.632;2022-11-15T06:49:37;2.03;;;1.50;;
56329;SDS011;42236;48.058;10.632;2022-11-15T06:52:23;1.50;;;1.10;;
56329;SDS011;42236;48.058;10.632;2022-11-15T06:55:09;4.00;;;1.23;;
56329;SDS011;42236;48.058;10.632;2022-11-15T06:57:54;1.10;;;1.00;;
56329;SDS011;42236;48.058;10.632;2022-11-15T07:00:40;1.20;;;1.10;;
56329;SDS011;42236;48.058;10.632;2022-11-15T07:03:26;1.50;;;1.20;;
56329;SDS011;42236;48.058;10.632;2022-11-15T07:06:12;1.87;;;1.00;;
56329;SDS011;42236;48.058;10.632;2022-11-15T07:08:58;1.93;;;1.20;;
56329;SDS011;42236;48.058;10.632;2022-11-15T07:11:43;1.30;;;1.13;;
56329;SDS011;42236;48.058;10.632;2022-11-15T07:14:29;1.60;;;1.20;;
56329;SDS011;42236;48.058;10.632;2022-11-15T07:17:15;5.07;;;1.30;;
56329;SDS011;42236;48.058;10.632;2022-11-15T07:20:00;1.93;;;1.30;;
56329;SDS011;42236;48.058;10.632;2022-11-15T07:22:46;1.53;;;1.13;;
56329;SDS011;42236;48.058;10.632;2022-11-15T07:25:32;2.63;;;1.30;;
56329;SDS011;42236;48.058;10.632;2022-11-15T07:28:18;2.73;;;1.40;;
56329;SDS011;42236;48.058;10.632;2022-11-15T07:31:04;3.37;;;1.30;;
56329;SDS011;42236;48.058;10.632;2022-11-15T07:33:51;1.53;;;1.10;;
56329;SDS011;42236;48.058;10.632;2022-11-15T07:36:36;1.20;;;1.10;;
56329;SDS011;42236;48.058;10.632;2022-11-15T07:39:22;3.63;;;1.53;;
56329;SDS011;42236;48.058;10.632;2022-11-15T07:42:08;2.03;;;1.43;;
56329;SDS011;42236;48.058;10.632;2022-11-15T07:45:12;3.53;;;1.67;;
56329;SDS011;42236;48.058;10.632;2022-11-15T07:47:58;6.00;;;1.60;;
56329;SDS011;42236;48.058;10.632;2022-11-15T07:50:44;3.50;;;2.10;;
56329;SDS011;42236;48.058;10.632;2022-11-15T07:53:29;2.77;;;2.13;;
56329;SDS011;42236;48.058;10.632;2022-11-15T07:56:15;4.00;;;2.10;;
56329;SDS011;42236;48.058;10.632;2022-11-15T07:59:01;3.27;;;2.10;;
56329;SDS011;42236;48.058;10.632;2022-11-15T08:01:46;2.93;;;1.87;;
56329;SDS011;42236;48.058;10.632;2022-11-15T08:04:32;25.70;;;10.10;;
56329;SDS011;42236;48.058;10.632;2022-11-15T08:07:18;22.67;;;9.20;;
56329;SDS011;42236;48.058;10.632;2022-11-15T08:10:04;3.53;;;2.37;;
56329;SDS011;42236;48.058;10.632;2022-11-15T08:13:24;2.73;;;1.97;;
56329;SDS011;42236;48.058;10.632;2022-11-15T08:16:03;8.13;;;5.03;;
56329;SDS011;42236;48.058;10.632;2022-11-15T08:18:50;32.77;;;16.47;;
56329;SDS011;42236;48.058;10.632;2022-11-15T08:21:36;7.90;;;5.23;;
56329;SDS011;42236;48.058;10.632;2022-11-15T08:24:22;7.30;;;1.80;;
56329;SDS011;42236;48.058;10.632;2022-11-15T08:27:08;2.57;;;1.50;;
56329;SDS011;42236;48.058;10.632;2022-11-15T08:30:00;4.17;;;1.60;;
56329;SDS011;42236;48.058;10.632;2022-11-15T08:32:45;3.00;;;1.20;;
56329;SDS011;42236;48.058;10.632;2022-11-15T08:35:32;1.10;;;1.00;;
56329;SDS011;42236;48.058;10.632;2022-11-15T08:38:17;1.50;;;1.20;;
56329;SDS011;42236;48.058;10.632;2022-11-15T08:41:04;1.67;;;1.10;;
56329;SDS011;42236;48.058;10.632;2022-11-15T08:43:51;2.60;;;1.40;;
56329;SDS011;42236;48.058;10.632;2022-11-15T08:46:36;8.53;;;1.57;;
56329;SDS011;42236;48.058;10.632;2022-11-15T08:49:22;4.63;;;1.53;;
56329;SDS011;42236;48.058;10.632;2022-11-15T08:52:08;3.57;;;2.67;;
56329;SDS011;42236;48.058;10.632;2022-11-15T08:54:53;2.80;;;2.10;;
56329;SDS011;42236;48.058;10.632;2022-11-15T08:57:39;8.93;;;3.23;;
56329;SDS011;42236;48.058;10.632;2022-11-15T09:00:25;12.43;;;3.50;;
56329;SDS011;42236;48.058;10.632;2022-11-15T09:03:10;3.57;;;2.40;;
56329;SDS011;42236;48.058;10.632;2022-11-15T09:05:57;3.23;;;1.30;;
56329;SDS011;42236;48.058;10.632;2022-11-15T09:08:44;1.30;;;1.20;;
56329;SDS011;42236;48.058;10.632;2022-11-15T09:11:29;1.33;;;1.10;;
56329;SDS011;42236;48.058;10.632;2022-11-15T09:14:15;2.00;;;1.00;;
56329;SDS011;42236;48.058;10.632;2022-11-15T09:17:01;1.87;;;1.30;;
56329;SDS011;42236;48.058;10.632;2022-11-15T09:19:46;0.97;;;0.97;;
56329;SDS011;42236;48.058;10.632;2022-11-15T09:22:32;0.90;;;0.90;;
56329;SDS011;42236;48.058;10.632;2022-11-15T09:25:18;2.03;;;1.20;;
56329;SDS011;42236;48.058;10.632;2022-11-15T09:28:06;2.53;;;1.57;;
56329;SDS011;42236;48.058;10.632;2022-11-15T09:31:00;2.00;;;0.97;;
56329;SDS011;42236;48.058;10.632;2022-11-15T09:33:47;2.00;;;0.90;;
56329;SDS011;42236;48.058;10.632;2022-11-15T09:36:32;1.30;;;1.07;;
56329;SDS011;42236;48.058;10.632;2022-11-15T09:39:18;1.37;;;1.10;;
56329;SDS011;42236;48.058;10.632;2022-11-15T09:48:08;2.43;;;1.07;;
56329;SDS011;42236;48.058;10.632;2022-11-15T09:50:59;0.83;;;0.83;;
56329;SDS011;42236;48.058;10.632;2022-11-15T09:53:49;2.07;;;1.23;;
56329;SDS011;42236;48.058;10.632;2022-11-15T09:56:43;2.50;;;1.27;;
56329;SDS011;42236;48.058;10.632;2022-11-15T10:05:45;1.00;;;0.90;;
56329;SDS011;42236;48.058;10.632;2022-11-15T10:11:57;1.00;;;0.90;;
56329;SDS011;42236;48.058;10.632;2022-11-15T10:14:43;1.00;;;1.00;;
56329;SDS011;42236;48.058;10.632;2022-11-15T10:17:36;1.17;;;1.07;;
56329;SDS011;42236;48.058;10.632;2022-11-15T10:20:25;1.70;;;1.10;;
56329;SDS011;42236;48.058;10.632;2022-11-15T10:23:13;1.63;;;1.23;;
56329;SDS011;42236;48.058;10.632;2022-11-15T10:26:01;2.27;;;1.17;;
56329;SDS011;42236;48.058;10.632;2022-11-15T10:28:53;1.40;;;1.10;;
56329;SDS011;42236;48.058;10.632;2022-11-15T10:31:39;2.63;;;1.10;;
56329;SDS011;42236;48.058;10.632;2022-11-15T10:34:26;1.70;;;1.20;;
56329;SDS011;42236;48.058;10.632;2022-11-15T10:37:12;2.47;;;1.10;;
56329;SDS011;42236;48.058;10.632;2022-11-15T10:40:04;3.30;;;1.77;;
56329;SDS011;42236;48.058;10.632;2022-11-15T10:46:29;1.83;;;1.40;;
56329;SDS011;42236;48.058;10.632;2022-11-15T10:55:19;6.00;;;1.20;;
56329;SDS011;42236;48.058;10.632;2022-11-15T11:06:57;5.30;;;1.00;;
56329;SDS011;42236;48.058;10.632;2022-11-15T11:09:45;3.27;;;1.00;;
56329;SDS011;42236;48.058;10.632;2022-11-15T11:12:42;4.30;;;0.90;;
56329;SDS011;42236;48.058;10.632;2022-11-15T11:15:27;5.17;;;1.30;;
56329;SDS011;42236;48.058;10.632;2022-11-15T11:18:20;3.13;;;0.90;;
56329;SDS011;42236;48.058;10.632;2022-11-15T11:21:14;2.83;;;1.10;;
56329;SDS011;42236;48.058;10.632;2022-11-15T11:24:15;1.03;;;0.93;;
56329;SDS011;42236;48.058;10.632;2022-11-15T11:30:30;2.23;;;1.30;;
56329;SDS011;42236;48.058;10.632;2022-11-15T11:36:42;1.03;;;0.70;;
56329;SDS011;42236;48.058;10.632;2022-11-15T11:39:54;0.93;;;0.93;;
56329;SDS011;42236;48.058;10.632;2022-11-15T11:45:53;2.23;;;1.90;;
56329;SDS011;42236;48.058;10.632;2022-11-15T11:48:45;0.90;;;0.90;;
56329;SDS011;42236;48.058;10.632;2022-11-15T11:51:36;1.00;;;0.80;;
56329;SDS011;42236;48.058;10.632;2022-11-15T12:00:26;1.50;;;1.30;;
56329;SDS011;42236;48.058;10.632;2022-11-15T12:03:29;1.10;;;1.00;;
56329;SDS011;42236;48.058;10.632;2022-11-15T12:06:39;2.63;;;1.00;;
56329;SDS011;42236;48.058;10.632;2022-11-15T12:15:59;1.60;;;1.20;;
56329;SDS011;42236;48.058;10.632;2022-11-15T12:18:52;1.57;;;1.40;;
56329;SDS011;42236;48.058;10.632;2022-11-15T12:21:42;1.43;;;1.33;;
56329;SDS011;42236;48.058;10.632;2022-11-15T12:30:44;2.20;;;1.43;;
56329;SDS011;42236;48.058;10.632;2022-11-15T12:33:36;1.90;;;1.20;;
56329;SDS011;42236;48.058;10.632;2022-11-15T12:39:14;1.52;;;1.27;;
56329;SDS011;42236;48.058;10.632;2022-11-15T12:47:35;1.73;;;1.40;;
56329;SDS011;42236;48.058;10.632;2022-11-15T12:51:03;2.47;;;1.43;;
56329;SDS011;42236;48.058;10.632;2022-11-15T12:53:49;2.00;;;1.73;;
56329;SDS011;42236;48.058;10.632;2022-11-15T12:56:35;1.77;;;1.60;;
56329;SDS011;42236;48.058;10.632;2022-11-15T12:59:47;5.87;;;1.67;;
56329;SDS011;42236;48.058;10.632;2022-11-15T13:02:41;1.90;;;1.70;;
56329;SDS011;42236;48.058;10.632;2022-11-15T13:11:42;2.33;;;1.90;;
56329;SDS011;42236;48.058;10.632;2022-11-15T13:14:46;1.97;;;1.60;;
56329;SDS011;42236;48.058;10.632;2022-11-15T13:17:37;2.30;;;1.80;;
56329;SDS011;42236;48.058;10.632;2022-11-15T13:20:44;3.38;;;1.40;;
56329;SDS011;42236;48.058;10.632;2022-11-15T13:23:30;2.13;;;1.83;;
56329;SDS011;42236;48.058;10.632;2022-11-15T13:26:16;3.28;;;1.90;;
56329;SDS011;42236;48.058;10.632;2022-11-15T13:29:02;3.20;;;1.85;;
56329;SDS011;42236;48.058;10.632;2022-11-15T13:31:48;2.63;;;1.73;;
56329;SDS011;42236;48.058;10.632;2022-11-15T13:34:34;2.78;;;1.83;;
56329;SDS011;42236;48.058;10.632;2022-11-15T13:43:31;2.35;;;1.70;;
56329;SDS011;42236;48.058;10.632;2022-11-15T13:46:21;2.38;;;1.75;;
56329;SDS011;42236;48.058;10.632;2022-11-15T13:49:09;3.30;;;1.57;;
56329;SDS011;42236;48.058;10.632;2022-11-15T13:51:58;1.80;;;1.70;;
56329;SDS011;42236;48.058;10.632;2022-11-15T13:57:50;1.73;;;1.50;;
56329;SDS011;42236;48.058;10.632;2022-11-15T14:00:40;2.47;;;1.80;;
56329;SDS011;42236;48.058;10.632;2022-11-15T14:03:29;1.60;;;1.50;;
56329;SDS011;42236;48.058;10.632;2022-11-15T14:06:18;2.60;;;1.87;;
56329;SDS011;42236;48.058;10.632;2022-11-15T14:11:55;3.17;;;2.03;;
56329;SDS011;42236;48.058;10.632;2022-11-15T14:14:45;2.47;;;1.80;;
56329;SDS011;42236;48.058;10.632;2022-11-15T14:23:28;3.20;;;1.92;;
56329;SDS011;42236;48.058;10.632;2022-11-15T14:26:32;2.47;;;1.13;;
56329;SDS011;42236;48.058;10.632;2022-11-15T14:29:28;1.87;;;1.67;;
56329;SDS011;42236;48.058;10.632;2022-11-15T14:32:16;3.72;;;1.60;;
56329;SDS011;42236;48.058;10.632;2022-11-15T14:35:08;2.20;;;1.75;;
56329;SDS011;42236;48.058;10.632;2022-11-15T14:38:01;1.95;;;1.60;;
56329;SDS011;42236;48.058;10.632;2022-11-15T14:40:47;3.40;;;2.10;;
56329;SDS011;42236;48.058;10.632;2022-11-15T14:43:33;2.43;;;1.93;;
56329;SDS011;42236;48.058;10.632;2022-11-15T14:46:18;3.50;;;2.07;;
56329;SDS011;42236;48.058;10.632;2022-11-15T14:49:04;2.87;;;2.03;;
56329;SDS011;42236;48.058;10.632;2022-11-15T14:51:50;5.13;;;2.30;;
56329;SDS011;42236;48.058;10.632;2022-11-15T14:54:36;6.18;;;2.10;;
56329;SDS011;42236;48.058;10.632;2022-11-15T14:57:21;2.38;;;1.90;;
56329;SDS011;42236;48.058;10.632;2022-11-15T15:00:07;4.53;;;2.40;;
56329;SDS011;42236;48.058;10.632;2022-11-15T15:02:55;2.63;;;1.88;;
56329;SDS011;42236;48.058;10.632;2022-11-15T15:05:41;5.90;;;2.43;;
56329;SDS011;42236;48.058;10.632;2022-11-15T15:08:28;3.10;;;2.10;;
56329;SDS011;42236;48.058;10.632;2022-11-15T15:11:14;3.27;;;2.40;;
56329;SDS011;42236;48.058;10.632;2022-11-15T15:14:11;5.23;;;1.93;;
56329;SDS011;42236;48.058;10.632;2022-11-15T15:16:59;5.77;;;2.40;;
56329;SDS011;42236;48.058;10.632;2022-11-15T15:19:44;5.23;;;2.50;;
56329;SDS011;42236;48.058;10.632;2022-11-15T15:22:30;4.80;;;2.47;;
56329;SDS011;42236;48.058;10.632;2022-11-15T15:25:21;6.60;;;2.53;;
56329;SDS011;42236;48.058;10.632;2022-11-15T15:28:09;5.37;;;2.73;;
56329;SDS011;42236;48.058;10.632;2022-11-15T15:30:54;4.97;;;3.40;;
56329;SDS011;42236;48.058;10.632;2022-11-15T15:33:40;13.10;;;6.30;;
56329;SDS011;42236;48.058;10.632;2022-11-15T15:36:26;10.10;;;5.90;;
56329;SDS011;42236;48.058;10.632;2022-11-15T15:39:12;6.33;;;4.30;;
56329;SDS011;42236;48.058;10.632;2022-11-15T15:41:57;5.57;;;4.17;;
56329;SDS011;42236;48.058;10.632;2022-11-15T15:44:43;5.70;;;4.20;;
56329;SDS011;42236;48.058;10.632;2022-11-15T15:47:29;7.77;;;5.73;;
56329;SDS011;42236;48.058;10.632;2022-11-15T15:50:21;8.27;;;4.67;;
56329;SDS011;42236;48.058;10.632;2022-11-15T15:53:07;5.53;;;4.17;;
56329;SDS011;42236;48.058;10.632;2022-11-15T15:55:53;3.13;;;2.77;;
56329;SDS011;42236;48.058;10.632;2022-11-15T15:58:39;10.03;;;5.67;;
56329;SDS011;42236;48.058;10.632;2022-11-15T16:01:24;11.97;;;6.80;;
56329;SDS011;42236;48.058;10.632;2022-11-15T16:04:10;7.13;;;4.93;;
56329;SDS011;42236;48.058;10.632;2022-11-15T16:06:59;5.33;;;3.63;;
56329;SDS011;42236;48.058;10.632;2022-11-15T16:09:45;6.87;;;3.27;;
56329;SDS011;42236;48.058;10.632;2022-11-15T16:12:47;5.17;;;3.23;;
56329;SDS011;42236;48.058;10.632;2022-11-15T16:15:33;6.43;;;3.03;;
56329;SDS011;42236;48.058;10.632;2022-11-15T16:18:20;7.37;;;3.10;;
56329;SDS011;42236;48.058;10.632;2022-11-15T16:21:07;6.50;;;3.53;;
56329;SDS011;42236;48.058;10.632;2022-11-15T16:23:53;5.60;;;3.73;;
56329;SDS011;42236;48.058;10.632;2022-11-15T16:26:39;4.23;;;3.53;;
56329;SDS011;42236;48.058;10.632;2022-11-15T16:29:25;5.20;;;3.20;;
56329;SDS011;42236;48.058;10.632;2022-11-15T16:32:12;4.90;;;3.10;;
56329;SDS011;42236;48.058;10.632;2022-11-15T16:34:58;11.77;;;5.33;;
56329;SDS011;42236;48.058;10.632;2022-11-15T16:37:44;7.20;;;4.80;;
56329;SDS011;42236;48.058;10.632;2022-11-15T16:40:32;9.93;;;5.33;;
56329;SDS011;42236;48.058;10.632;2022-11-15T16:43:20;8.37;;;5.83;;
56329;SDS011;42236;48.058;10.632;2022-11-15T16:46:12;8.40;;;6.40;;
56329;SDS011;42236;48.058;10.632;2022-11-15T16:49:00;8.60;;;6.67;;
56329;SDS011;42236;48.058;10.632;2022-11-15T16:51:46;11.30;;;6.90;;
56329;SDS011;42236;48.058;10.632;2022-11-15T16:54:33;10.93;;;7.73;;
56329;SDS011;42236;48.058;10.632;2022-11-15T16:57:18;7.33;;;5.00;;
56329;SDS011;42236;48.058;10.632;2022-11-15T17:00:04;10.53;;;6.87;;
56329;SDS011;42236;48.058;10.632;2022-11-15T17:02:50;8.37;;;6.10;;
56329;SDS011;42236;48.058;10.632;2022-11-15T17:05:37;8.20;;;5.70;;
56329;SDS011;42236;48.058;10.632;2022-11-15T17:08:22;7.00;;;4.77;;
56329;SDS011;42236;48.058;10.632;2022-11-15T17:11:08;9.17;;;6.17;;
56329;SDS011;42236;48.058;10.632;2022-11-15T17:13:57;8.20;;;6.70;;
56329;SDS011;42236;48.058;10.632;2022-11-15T17:16:43;8.77;;;5.23;;
56329;SDS011;42236;48.058;10.632;2022-11-15T17:19:29;7.03;;;5.10;;
56329;SDS011;42236;48.058;10.632;2022-11-15T17:22:15;6.17;;;4.10;;
56329;SDS011;42236;48.058;10.632;2022-11-15T17:25:01;7.17;;;4.80;;
56329;SDS011;42236;48.058;10.632;2022-11-15T17:27:47;6.70;;;5.37;;
56329;SDS011;42236;48.058;10.632;2022-11-15T17:30:33;7.67;;;4.17;;
56329;SDS011;42236;48.058;10.632;2022-11-15T17:33:20;10.00;;;6.57;;
56329;SDS011;42236;48.058;10.632;2022-11-15T17:36:06;12.50;;;7.33;;
56329;SDS011;42236;48.058;10.632;2022-11-15T17:38:54;12.07;;;7.10;;
56329;SDS011;42236;48.058;10.632;2022-11-15T17:41:40;11.70;;;7.10;;
56329;SDS011;42236;48.058;10.632;2022-11-15T17:44:26;13.53;;;8.50;;
56329;SDS011;42236;48.058;10.632;2022-11-15T17:47:11;13.80;;;7.67;;
56329;SDS011;42236;48.058;10.632;2022-11-15T17:49:57;21.70;;;9.13;;
56329;SDS011;42236;48.058;10.632;2022-11-15T17:52:43;21.77;;;9.53;;
56329;SDS011;42236;48.058;10.632;2022-11-15T17:55:28;19.37;;;9.23;;
56329;SDS011;42236;48.058;10.632;2022-11-15T17:58:14;22.07;;;10.63;;
56329;SDS011;42236;48.058;10.632;2022-11-15T18:04:06;24.57;;;11.43;;
56329;SDS011;42236;48.058;10.632;2022-11-15T18:06:53;19.90;;;10.10;;
56329;SDS011;42236;48.058;10.632;2022-11-15T18:09:40;15.17;;;9.13;;
56329;SDS011;42236;48.058;10.632;2022-11-15T18:12:28;19.10;;;8.87;;
56329;SDS011;42236;48.058;10.632;2022-11-15T18:15:13;21.83;;;11.60;;
56329;SDS011;42236;48.058;10.632;2022-11-15T18:17:59;16.07;;;10.27;;
56329;SDS011;42236;48.058;10.632;2022-11-15T18:20:45;14.87;;;10.67;;
56329;SDS011;42236;48.058;10.632;2022-11-15T18:23:31;18.07;;;11.73;;
56329;SDS011;42236;48.058;10.632;2022-11-15T18:26:18;14.60;;;9.37;;
56329;SDS011;42236;48.058;10.632;2022-11-15T18:29:04;16.90;;;7.20;;
56329;SDS011;42236;48.058;10.632;2022-11-15T18:31:49;9.67;;;7.07;;
56329;SDS011;42236;48.058;10.632;2022-11-15T18:34:39;13.93;;;7.77;;
56329;SDS011;42236;48.058;10.632;2022-11-15T18:37:25;16.50;;;8.10;;